KCKB

North Central West Virginia Airport

Clarksburg, West Virginia, USA
METAR KCKB 271153Z 20003KT 10SM FEW019 SCT044 22/20 A2995 RMK AO2 SLP128 60025 70025 T02220200 10222 20194 53013
Observed Flight Rules
May-27 @ 11:53 UTC (11 minutes ago) Visual Flight Rules
Wind Visibility Clouds
200° at 3 knots 10 miles
  • Few at 1,900' AGL
  • Scattered at 4,400' AGL
Temperatures Readings
Current 22°C / 72°F
Dewpoint 20°C / 68°F
Humidity 88%
Altimeter 29.95" Hg
Pressure 1012.8 hPa
Elevation 360
METAR KCKB 271153Z 20003KT 10SM FEW019 SCT044 22/20 A2995 RMK AO2 SLP128 60025 70025 T02220200 10222 20194 53013
Observed Flight Rules
May-27 @ 11:53 UTC
(11 minutes ago)
VFR
Wind Visibility
200° at 3 knots 10 miles
Clouds
  • Few at 1,900' AGL
  • Scattered at 4,400' AGL
Temperature Dewpoint
22°C / 72°F 20°C / 68°F
Humidity Altimeter Pressure
88% 29.95" Hg 1012.8 hPa